createdAt,value
2023-02-15T00:00:24.834Z,2.61
2023-02-15T00:05:26.291Z,2.63
2023-02-15T00:10:27.746Z,2.68
2023-02-15T00:15:29.303Z,2.60
2023-02-15T00:20:30.738Z,2.39
2023-02-15T00:25:32.168Z,2.37
2023-02-15T00:30:33.641Z,2.31
2023-02-15T00:35:35.961Z,2.39
2023-02-15T00:40:37.869Z,2.36
2023-02-15T00:45:39.331Z,2.38
2023-02-15T00:50:40.839Z,2.41
2023-02-15T00:55:42.774Z,2.47
2023-02-15T01:00:46.885Z,2.48
2023-02-15T01:05:49.870Z,2.41
2023-02-15T01:10:51.562Z,2.27
2023-02-15T01:15:56.638Z,2.30
2023-02-15T01:20:58.502Z,2.34
2023-02-15T01:26:04.105Z,2.31
2023-02-15T01:31:11.141Z,2.24
2023-02-15T01:36:12.751Z,2.21
2023-02-15T01:41:30.533Z,2.03
2023-02-15T01:46:39.340Z,1.72
2023-02-15T01:51:44.296Z,1.69
2023-02-15T01:56:47.701Z,1.59
2023-02-15T02:01:54.401Z,1.52
2023-02-15T02:06:58.809Z,1.43
2023-02-15T02:12:01.241Z,1.55
2023-02-15T02:17:21.576Z,1.67
2023-02-15T02:22:35.632Z,1.82
2023-02-15T02:28:08.065Z,1.78
2023-02-15T02:33:29.540Z,1.74
2023-02-15T02:39:08.101Z,1.52
2023-02-15T02:44:26.363Z,1.48
2023-02-15T02:49:46.113Z,1.46
2023-02-15T02:54:47.709Z,1.51
2023-02-15T02:59:51.647Z,1.72
2023-02-15T03:05:04.979Z,1.85
2023-02-15T03:10:08.597Z,1.84
2023-02-15T03:15:20.347Z,1.79
2023-02-15T03:20:27.635Z,1.62
2023-02-15T03:25:35.653Z,1.52
2023-02-15T03:30:40.063Z,1.59
2023-02-15T03:35:58.544Z,1.60
2023-02-15T03:41:12.061Z,1.65
2023-02-15T03:46:16.572Z,1.57
2023-02-15T03:51:38.872Z,1.47
2023-02-15T03:57:03.510Z,1.44
2023-02-15T04:02:20.562Z,1.37
2023-02-15T04:07:21.990Z,1.38
2023-02-15T04:12:24.469Z,1.36
2023-02-15T04:17:26.883Z,1.41
2023-02-15T04:22:46.820Z,1.46
2023-02-15T04:27:54.703Z,1.51
2023-02-15T04:32:58.080Z,1.54
2023-02-15T04:37:59.875Z,1.62
2023-02-15T04:43:01.340Z,1.56
2023-02-15T04:48:03.244Z,1.55
2023-02-15T04:53:04.885Z,1.62
2023-02-15T04:58:06.386Z,1.77
2023-02-15T05:03:07.826Z,1.82
2023-02-15T05:08:09.446Z,1.89
2023-02-15T05:13:11.237Z,1.87
2023-02-15T05:22:39.348Z,1.54
2023-02-15T05:27:59.471Z,1.49
2023-02-15T05:33:00.897Z,1.59
2023-02-15T05:38:02.420Z,1.68
2023-02-15T05:43:03.910Z,1.65
2023-02-15T05:48:05.396Z,1.69
2023-02-15T05:53:06.857Z,1.71
2023-02-15T05:58:08.858Z,1.79
2023-02-15T06:03:10.394Z,1.92
2023-02-15T06:08:11.822Z,1.99
2023-02-15T06:13:13.343Z,1.92
2023-02-15T06:18:15.120Z,1.75
2023-02-15T06:23:17.057Z,1.78
2023-02-15T06:28:18.582Z,1.84
2023-02-15T06:33:20.052Z,1.72
2023-02-15T06:38:22.100Z,1.77
2023-02-15T06:43:23.627Z,1.88
2023-02-15T06:48:26.176Z,1.96
2023-02-15T06:53:27.653Z,1.97
2023-02-15T06:58:29.371Z,2.04
2023-02-15T07:03:32.707Z,2.06
2023-02-15T07:08:34.633Z,2.03
2023-02-15T07:13:36.165Z,1.77
2023-02-15T07:18:38.176Z,1.57
2023-02-15T07:23:43.850Z,1.32
2023-02-15T07:28:45.456Z,1.22
2023-02-15T07:33:50.010Z,1.16
2023-02-15T07:38:51.822Z,1.19
2023-02-15T07:43:53.310Z,1.24
2023-02-15T07:48:54.946Z,1.27
2023-02-15T07:53:56.425Z,1.19
2023-02-15T07:58:59.241Z,1.12
2023-02-15T08:04:01.015Z,1.19
2023-02-15T08:09:06.358Z,1.22
2023-02-15T08:14:23.045Z,1.30
2023-02-15T08:19:30.062Z,1.38
2023-02-15T08:24:35.220Z,1.41
2023-02-15T08:29:38.573Z,1.39
2023-02-15T08:34:42.699Z,1.43
2023-02-15T08:39:44.434Z,1.58
2023-02-15T08:44:45.988Z,1.69
2023-02-15T08:49:47.420Z,1.92
2023-02-15T08:54:48.897Z,2.05
2023-02-15T08:59:51.931Z,2.20
2023-02-15T09:04:53.747Z,2.28
2023-02-15T09:09:56.023Z,2.46
2023-02-15T09:14:57.495Z,2.33
2023-02-15T09:19:59.085Z,2.42
2023-02-15T09:25:00.646Z,2.58
2023-02-15T09:30:02.288Z,2.53
2023-02-15T09:35:03.926Z,2.64
2023-02-15T09:40:06.254Z,2.88
2023-02-15T09:45:27.126Z,2.90
2023-02-15T09:50:48.288Z,3.07
2023-02-15T09:56:04.085Z,3.40
2023-02-15T10:01:08.522Z,3.62
2023-02-15T10:06:42.819Z,3.80
2023-02-15T10:12:18.308Z,3.77
2023-02-15T10:17:41.711Z,3.85
2023-02-15T10:22:51.976Z,3.88
2023-02-15T10:27:53.562Z,3.93
2023-02-15T10:33:01.956Z,3.86
2023-02-15T10:38:14.759Z,3.93
2023-02-15T10:43:56.865Z,3.87
2023-02-15T10:49:50.941Z,3.59
2023-02-15T10:55:08.452Z,3.46
2023-02-15T11:00:32.097Z,3.53
2023-02-15T11:05:45.178Z,3.42
2023-02-15T11:11:11.989Z,3.49
2023-02-15T11:16:22.329Z,3.63
2023-02-15T11:21:28.533Z,3.74
2023-02-15T11:26:35.894Z,3.81
2023-02-15T11:31:51.180Z,4.09
2023-02-15T11:36:56.252Z,4.16
2023-02-15T11:42:05.591Z,4.05
2023-02-15T11:47:12.585Z,4.27
2023-02-15T11:52:15.885Z,4.69
2023-02-15T11:57:41.469Z,5.13
2023-02-15T12:02:47.881Z,5.59
2023-02-15T12:08:18.473Z,5.80
2023-02-15T12:13:20.762Z,5.94
2023-02-15T12:18:34.525Z,6.08
2023-02-15T12:23:52.085Z,6.21
2023-02-15T12:28:55.491Z,6.16
2023-02-15T12:34:00.808Z,6.09
2023-02-15T12:39:08.593Z,6.22
2023-02-15T12:44:20.817Z,6.23
2023-02-15T12:49:22.395Z,6.26
2023-02-15T12:54:27.095Z,6.51
2023-02-15T12:59:28.635Z,6.49
2023-02-15T13:04:30.480Z,6.48
2023-02-15T13:09:35.470Z,6.48
2023-02-15T13:14:37.704Z,6.79
2023-02-15T13:19:46.045Z,7.04
2023-02-15T13:24:50.994Z,7.20
2023-02-15T13:29:59.178Z,7.21
2023-02-15T13:35:06.136Z,7.10
2023-02-15T13:40:11.521Z,6.91
2023-02-15T13:45:40.682Z,6.67
2023-02-15T13:51:08.239Z,6.61
2023-02-15T13:56:33.357Z,6.42
2023-02-15T14:01:53.685Z,6.08
2023-02-15T14:07:16.189Z,6.09
2023-02-15T14:12:36.473Z,6.15
2023-02-15T14:18:00.879Z,6.21
2023-02-15T14:23:11.545Z,6.25
2023-02-15T14:28:16.229Z,6.24
2023-02-15T14:33:37.015Z,6.04
2023-02-15T14:39:06.845Z,5.92
2023-02-15T14:44:17.334Z,6.05
2023-02-15T14:49:24.267Z,5.98
2023-02-15T14:54:25.670Z,5.87
2023-02-15T14:59:39.763Z,5.83
2023-02-15T15:04:56.915Z,5.74
2023-02-15T15:10:18.645Z,5.56
2023-02-15T15:15:32.202Z,5.51
2023-02-15T15:20:51.815Z,5.47
2023-02-15T15:26:22.975Z,5.41
2023-02-15T15:31:44.984Z,5.37
2023-02-15T15:37:02.059Z,5.29
2023-02-15T15:42:21.790Z,5.20
2023-02-15T15:47:23.390Z,4.99
2023-02-15T15:52:27.064Z,4.80
2023-02-15T15:57:45.578Z,4.74
2023-02-15T16:02:53.944Z,4.70
2023-02-15T16:07:55.658Z,4.60
2023-02-15T16:12:57.370Z,4.41
2023-02-15T16:18:00.815Z,4.23
2023-02-15T16:23:23.703Z,4.07
2023-02-15T16:28:25.438Z,3.90
2023-02-15T16:33:38.076Z,3.81
2023-02-15T16:38:42.675Z,3.62
2023-02-15T16:43:48.095Z,3.51
2023-02-15T16:48:55.366Z,3.48
2023-02-15T16:54:01.472Z,3.41
2023-02-15T16:59:04.385Z,3.31
2023-02-15T17:04:33.226Z,3.21
2023-02-15T17:09:35.184Z,3.14
2023-02-15T17:14:42.432Z,3.06
2023-02-15T17:19:50.058Z,3.00
2023-02-15T17:24:59.437Z,2.92
2023-02-15T17:30:14.644Z,2.82
2023-02-15T17:35:20.511Z,2.73
2023-02-15T17:40:30.226Z,2.63
2023-02-15T17:45:47.917Z,2.51
2023-02-15T17:50:49.989Z,2.41
2023-02-15T17:55:52.294Z,2.34
2023-02-15T18:01:16.508Z,2.30
2023-02-15T18:06:36.412Z,2.27
2023-02-15T18:11:40.674Z,2.18
2023-02-15T18:16:45.619Z,2.05
2023-02-15T18:21:47.933Z,1.92
2023-02-15T18:26:49.751Z,1.84
2023-02-15T18:31:56.450Z,1.78
2023-02-15T18:36:59.905Z,1.79
2023-02-15T18:42:01.714Z,1.77
2023-02-15T18:47:03.192Z,1.74
2023-02-15T18:52:04.853Z,1.69
2023-02-15T18:57:06.265Z,1.67
2023-02-15T19:02:13.631Z,1.59
2023-02-15T19:07:29.872Z,1.44
2023-02-15T19:12:31.416Z,1.28
2023-02-15T19:17:32.827Z,1.22
2023-02-15T19:22:34.903Z,1.18
2023-02-15T19:27:36.431Z,1.20
2023-02-15T19:32:37.874Z,1.25
2023-02-15T19:37:42.468Z,1.30
2023-02-15T19:42:44.393Z,1.41
2023-02-15T19:47:48.062Z,1.53
2023-02-15T19:52:51.932Z,1.65
2023-02-15T19:57:54.847Z,1.67
2023-02-15T20:02:59.230Z,1.56
2023-02-15T20:08:03.947Z,1.66
2023-02-15T20:13:05.443Z,1.80
2023-02-15T20:18:07.628Z,1.77
2023-02-15T20:23:21.723Z,1.74
2023-02-15T20:28:29.550Z,1.59
2023-02-15T20:33:31.026Z,1.41
2023-02-15T20:38:32.874Z,1.52
2023-02-15T20:43:34.585Z,1.65
2023-02-15T20:48:36.269Z,1.68
2023-02-15T20:53:37.722Z,1.67
2023-02-15T20:58:41.789Z,1.20
2023-02-15T21:03:43.262Z,0.96
2023-02-15T21:08:44.981Z,0.89
2023-02-15T21:13:48.752Z,0.88
2023-02-15T21:18:50.171Z,0.99
2023-02-15T21:23:53.001Z,1.21
2023-02-15T21:28:55.163Z,1.36
2023-02-15T21:33:56.788Z,1.44
2023-02-15T21:38:58.396Z,1.48
2023-02-15T21:44:18.228Z,1.42
2023-02-15T21:49:19.651Z,1.48
2023-02-15T21:54:21.472Z,1.34
2023-02-15T21:59:22.922Z,1.31
2023-02-15T22:04:29.883Z,1.22
2023-02-15T22:09:31.341Z,1.10
2023-02-15T22:14:39.071Z,1.12
2023-02-15T22:19:40.525Z,1.21
2023-02-15T22:24:42.722Z,1.13
2023-02-15T22:29:44.301Z,1.10
2023-02-15T22:34:46.469Z,1.14
2023-02-15T22:39:47.948Z,1.05
2023-02-15T22:44:49.709Z,0.95
2023-02-15T22:49:51.642Z,0.98
2023-02-15T22:54:53.136Z,1.00
2023-02-15T22:59:54.871Z,1.16
2023-02-15T23:04:56.328Z,1.08
2023-02-15T23:09:57.755Z,1.06
2023-02-15T23:14:59.447Z,1.04
2023-02-15T23:20:00.855Z,0.94
2023-02-15T23:25:02.296Z,0.84
2023-02-15T23:30:05.936Z,0.87
2023-02-15T23:35:17.784Z,0.97
2023-02-15T23:40:40.235Z,0.67
2023-02-15T23:45:41.744Z,0.57
2023-02-15T23:50:43.780Z,0.58
2023-02-15T23:55:45.294Z,0.62
